LFRJ 181730Z AUTO 22012KT 9999 OVC006 18/16 Q1018 BECMG 4000 BR OVC004

ElémentsDécodage
LFRJ Station météo située sur l'aérodrome de LANDIVISIAU
181730Z émis le 18 du mois à 17h30 UTC
AUTO Bulletin édité par un automate
22012KT vent du 220°, 12 noeuds
9999 visibilité horizontale supérieure à 10 Km
OVC006 couverture nuageuse totale (8/8) à 600 pieds
18/16 température 18°C, point de rosée 16°C
 soit une humidité relative de 88%
Q1018 la pression au niveau de la mer (QNH) est de 1018 hPa
BECMG fluctuation du temps prévue
4000 visibilité horizontale de 4000 mètres
BR brume
OVC004 couverture nuageuse totale (8/8) à 400 pieds